Macklin, Canada
Current Conditions -  °F | °C
As of 1:00 AM on Friday 24 Oct 2014 (Local Time) from CYKY Reporting Station
Few Clouds Few Clouds  
Wind Chill: 10°   Ceiling: Unl
Heat Index: 10°   Visibility: 15mi
Dew Point:   Wind: 14mph
Humidity: 66%   Direction: 230°SW
Pressure: 29.58"   Gusts: NA
Location:  52.33°N, 109.95°W
Report Text: CYKY 240700Z 23012KT 15SM FEW030 10/04 A2958 RMK SC2 SLP021 DENSITY ALT 2500FT
Loading
Personal Weather Stations






























Interactive Weather Map
Tropical Storm Tracking
New forecast layout! Learn more

10-Day Weather Forecast

Advertisements
Track Severe Weather on mobile